createdAt,value
2023-03-06T00:03:28.528Z,25.00
2023-03-06T00:05:57.473Z,26.30
2023-03-06T00:08:26.474Z,25.08
2023-03-06T00:10:54.194Z,23.92
2023-03-06T00:13:21.206Z,24.15
2023-03-06T00:15:48.847Z,32.15
2023-03-06T00:18:15.869Z,24.98
2023-03-06T00:20:44.287Z,22.73
2023-03-06T00:23:11.893Z,25.90
2023-03-06T00:25:42.537Z,27.75
2023-03-06T00:28:12.268Z,27.30
2023-03-06T00:30:39.418Z,24.42
2023-03-06T00:33:06.332Z,25.48
2023-03-06T00:35:33.423Z,23.25
2023-03-06T00:38:00.404Z,28.50
2023-03-06T00:40:27.528Z,25.88
2023-03-06T00:42:54.479Z,27.08
2023-03-06T00:45:21.365Z,26.95
2023-03-06T00:47:48.438Z,29.10
2023-03-06T00:50:15.356Z,28.17
2023-03-06T00:52:42.434Z,24.70
2023-03-06T00:55:10.568Z,25.50
2023-03-06T00:57:37.940Z,25.30
2023-03-06T01:00:07.814Z,25.00
2023-03-06T01:02:35.008Z,26.15
2023-03-06T01:05:02.266Z,24.58
2023-03-06T01:07:34.089Z,25.55
2023-03-06T01:10:00.971Z,23.15
2023-03-06T01:12:30.447Z,24.33
2023-03-06T01:14:57.509Z,20.58
2023-03-06T01:17:24.440Z,24.48
2023-03-06T01:19:51.368Z,24.15
2023-03-06T01:22:18.379Z,25.23
2023-03-06T01:24:45.273Z,22.35
2023-03-06T01:27:12.252Z,22.92
2023-03-06T01:29:39.144Z,23.02
2023-03-06T01:32:06.424Z,24.42
2023-03-06T01:34:33.392Z,22.42
2023-03-06T01:37:00.427Z,27.27
2023-03-06T01:39:28.760Z,22.08
2023-03-06T01:41:55.845Z,24.10
2023-03-06T01:44:22.682Z,25.45
2023-03-06T01:46:49.778Z,25.35
2023-03-06T01:49:35.341Z,25.30
2023-03-06T01:52:22.012Z,25.00
2023-03-06T01:54:57.782Z,25.98
2023-03-06T01:57:29.171Z,24.42
2023-03-06T02:00:02.744Z,29.65
2023-03-06T02:02:44.007Z,27.60
2023-03-06T02:05:12.090Z,25.67
2023-03-06T02:07:42.569Z,26.02
2023-03-06T02:10:14.335Z,25.67
2023-03-06T02:12:43.775Z,27.60
2023-03-06T02:17:39.362Z,29.20
2023-03-06T02:20:17.472Z,25.75
2023-03-06T02:22:54.153Z,30.75
2023-03-06T02:25:41.653Z,30.70
2023-03-06T02:28:11.875Z,24.75
2023-03-06T02:30:42.743Z,26.60
2023-03-06T02:33:22.701Z,25.63
2023-03-06T02:36:04.668Z,28.05
2023-03-06T02:38:37.454Z,28.83
2023-03-06T02:41:08.897Z,26.95
2023-03-06T02:43:39.082Z,26.92
2023-03-06T02:46:06.951Z,28.75
2023-03-06T02:48:34.039Z,30.23
2023-03-06T02:51:00.990Z,26.67
2023-03-06T02:53:28.078Z,25.90
2023-03-06T02:55:55.223Z,27.48
2023-03-06T02:58:22.236Z,25.05
2023-03-06T03:00:50.070Z,28.20
2023-03-06T03:03:19.653Z,25.98
2023-03-06T03:05:46.741Z,22.75
2023-03-06T03:08:28.615Z,24.75
2023-03-06T03:11:00.276Z,28.88
2023-03-06T03:13:32.775Z,23.83
2023-03-06T03:16:03.622Z,25.10
2023-03-06T03:18:31.215Z,24.02
2023-03-06T03:20:58.819Z,23.42
2023-03-06T03:23:26.402Z,25.05
2023-03-06T03:26:16.417Z,26.63
2023-03-06T03:28:48.597Z,25.55
2023-03-06T03:31:18.428Z,23.88
2023-03-06T03:33:45.598Z,30.10
2023-03-06T03:36:13.271Z,28.27
2023-03-06T03:38:44.069Z,25.45
2023-03-06T03:41:11.846Z,25.05
2023-03-06T03:43:38.764Z,25.05
2023-03-06T03:46:06.216Z,27.23
2023-03-06T03:48:33.748Z,25.13
2023-03-06T03:51:12.893Z,27.35
2023-03-06T03:53:45.233Z,25.95
2023-03-06T03:56:14.799Z,26.38
2023-03-06T03:58:50.861Z,27.08
2023-03-06T04:01:18.237Z,27.25
2023-03-06T04:03:45.395Z,29.13
2023-03-06T04:06:14.939Z,28.00
2023-03-06T04:08:42.062Z,31.23
2023-03-06T04:11:09.529Z,31.15
2023-03-06T04:13:36.501Z,30.33
2023-03-06T04:16:05.166Z,29.40
2023-03-06T04:18:33.546Z,33.22
2023-03-06T04:21:04.425Z,29.83
2023-03-06T04:23:31.877Z,35.50
2023-03-06T04:25:59.069Z,33.72
2023-03-06T04:28:26.281Z,29.60
2023-03-06T04:30:53.306Z,30.08
2023-03-06T04:33:21.276Z,31.17
2023-03-06T04:35:48.614Z,29.65
2023-03-06T04:38:21.348Z,30.65
2023-03-06T04:40:49.899Z,28.52
2023-03-06T04:43:18.569Z,60.83
2023-03-06T04:45:45.504Z,34.08
2023-03-06T04:48:17.798Z,29.70
2023-03-06T04:50:44.904Z,31.35
2023-03-06T04:53:14.548Z,34.90
2023-03-06T04:55:41.646Z,29.63
2023-03-06T04:58:08.745Z,35.42
2023-03-06T05:00:35.696Z,27.73
2023-03-06T05:03:02.641Z,32.35
2023-03-06T05:05:29.951Z,27.67
2023-03-06T05:07:57.579Z,31.90
2023-03-06T05:10:24.601Z,30.30
2023-03-06T05:12:53.706Z,29.77
2023-03-06T05:15:20.678Z,28.98
2023-03-06T05:17:47.805Z,33.63
2023-03-06T05:20:15.603Z,27.65
2023-03-06T05:22:44.065Z,31.27
2023-03-06T05:25:11.187Z,29.35
2023-03-06T05:27:39.959Z,28.40
2023-03-06T05:30:08.020Z,27.70
2023-03-06T05:32:35.775Z,29.75
2023-03-06T05:35:04.011Z,31.40
2023-03-06T05:37:31.093Z,25.52
2023-03-06T05:39:58.474Z,28.33
2023-03-06T05:42:27.600Z,30.88
2023-03-06T05:44:55.357Z,27.08
2023-03-06T05:47:22.455Z,32.28
2023-03-06T05:49:49.380Z,34.47
2023-03-06T05:52:17.717Z,30.98
2023-03-06T05:54:44.966Z,31.50
2023-03-06T05:57:11.975Z,30.58
2023-03-06T05:59:39.238Z,27.85
2023-03-06T06:02:06.090Z,29.98
2023-03-06T06:04:33.028Z,30.27
2023-03-06T06:07:01.888Z,30.70
2023-03-06T06:09:29.595Z,36.85
2023-03-06T06:11:59.669Z,31.60
2023-03-06T06:14:26.617Z,33.17
2023-03-06T06:16:54.049Z,31.23
2023-03-06T06:19:22.151Z,30.98
2023-03-06T06:21:51.281Z,30.70
2023-03-06T06:24:20.575Z,29.50
2023-03-06T06:26:51.715Z,31.88
2023-03-06T06:29:18.612Z,30.50
2023-03-06T06:31:45.952Z,34.88
2023-03-06T06:34:13.841Z,28.50
2023-03-06T06:36:41.404Z,32.00
2023-03-06T06:39:16.053Z,29.13
2023-03-06T06:41:57.277Z,31.35
2023-03-06T06:44:29.461Z,32.47
2023-03-06T06:47:21.898Z,28.35
2023-03-06T06:49:43.609Z,27.00
2023-03-06T06:52:11.209Z,27.83
2023-03-06T06:54:38.249Z,26.27
2023-03-06T06:57:05.163Z,33.80
2023-03-06T06:59:32.257Z,28.67
2023-03-06T07:01:59.429Z,25.83
2023-03-06T07:04:27.073Z,28.17
2023-03-06T07:06:57.754Z,28.42
2023-03-06T07:09:25.646Z,25.67
2023-03-06T07:11:52.720Z,28.80
2023-03-06T07:14:19.845Z,31.35
2023-03-06T07:16:46.994Z,29.90
2023-03-06T07:19:14.169Z,25.58
2023-03-06T07:21:41.349Z,33.40
2023-03-06T07:24:08.623Z,27.17
2023-03-06T07:26:35.578Z,28.80
2023-03-06T07:29:04.165Z,28.98
2023-03-06T07:31:31.501Z,33.67
2023-03-06T07:33:58.448Z,30.30
2023-03-06T07:36:25.460Z,25.33
2023-03-06T07:38:52.321Z,30.35
2023-03-06T07:41:22.198Z,30.75
2023-03-06T07:43:49.876Z,30.42
2023-03-06T07:46:17.524Z,27.58
2023-03-06T07:48:44.727Z,32.22
2023-03-06T07:51:20.413Z,28.27
2023-03-06T07:53:48.637Z,25.33
2023-03-06T07:56:15.878Z,27.45
2023-03-06T07:58:44.886Z,26.77
2023-03-06T08:01:15.180Z,24.80
2023-03-06T08:03:42.770Z,28.30
2023-03-06T08:06:19.483Z,29.75
2023-03-06T08:08:47.454Z,25.48
2023-03-06T08:11:16.818Z,29.67
2023-03-06T08:13:44.019Z,27.55
2023-03-06T08:16:11.732Z,27.30
2023-03-06T08:18:40.004Z,27.55
2023-03-06T08:21:12.930Z,28.93
2023-03-06T08:23:40.728Z,28.75
2023-03-06T08:26:12.321Z,28.85
2023-03-06T08:28:40.019Z,27.63
2023-03-06T08:31:21.231Z,33.45
2023-03-06T08:33:48.170Z,29.55
2023-03-06T08:36:15.050Z,27.67
2023-03-06T08:38:42.197Z,30.90
2023-03-06T08:41:09.059Z,29.00
2023-03-06T08:43:36.303Z,33.88
2023-03-06T08:46:03.599Z,32.80
2023-03-06T08:48:30.613Z,31.00
2023-03-06T08:50:57.894Z,28.35
2023-03-06T08:53:40.334Z,30.90
2023-03-06T08:56:18.331Z,30.42
2023-03-06T08:58:46.060Z,29.52
2023-03-06T09:01:19.167Z,34.55
2023-03-06T09:03:46.462Z,30.33
2023-03-06T09:06:13.503Z,29.90
2023-03-06T09:08:43.214Z,33.10
2023-03-06T09:11:11.956Z,29.98
2023-03-06T09:13:39.311Z,35.37
2023-03-06T09:16:07.031Z,29.90
2023-03-06T09:18:33.854Z,28.58
2023-03-06T09:21:01.304Z,31.67
2023-03-06T09:23:29.371Z,27.87
2023-03-06T09:25:58.129Z,33.80
2023-03-06T09:28:25.488Z,28.35
2023-03-06T09:30:54.279Z,30.10
2023-03-06T09:33:21.798Z,27.52
2023-03-06T09:35:56.756Z,33.15
2023-03-06T09:38:27.166Z,30.10
2023-03-06T09:41:22.903Z,27.55
2023-03-06T09:43:53.379Z,26.60
2023-03-06T09:46:31.211Z,31.00
2023-03-06T09:49:34.002Z,28.50
2023-03-06T09:52:19.925Z,31.50
2023-03-06T09:54:54.549Z,34.90
2023-03-06T09:57:37.440Z,29.13
2023-03-06T10:00:13.173Z,27.05
2023-03-06T10:02:46.128Z,26.02
2023-03-06T10:05:26.997Z,29.27
2023-03-06T10:08:02.354Z,26.55
2023-03-06T10:10:48.426Z,27.80
2023-03-06T10:13:19.955Z,28.25
2023-03-06T10:15:48.158Z,29.42
2023-03-06T10:18:15.207Z,29.55
2023-03-06T10:21:17.273Z,26.52
2023-03-06T10:23:46.736Z,28.63
2023-03-06T10:26:19.588Z,24.80
2023-03-06T10:29:18.969Z,26.77
2023-03-06T10:31:56.595Z,26.80
2023-03-06T10:34:29.077Z,27.27
2023-03-06T10:37:01.545Z,26.02
2023-03-06T10:39:29.939Z,28.85
2023-03-06T10:41:56.905Z,28.60
2023-03-06T10:44:25.025Z,23.65
2023-03-06T10:46:53.977Z,28.33
2023-03-06T10:49:36.617Z,25.35
2023-03-06T10:52:06.681Z,25.20
2023-03-06T10:54:37.667Z,26.00
2023-03-06T10:57:20.702Z,25.73
2023-03-06T10:59:53.613Z,22.73
2023-03-06T11:02:27.627Z,25.80
2023-03-06T11:04:56.441Z,26.08
2023-03-06T11:07:28.787Z,25.88
2023-03-06T11:10:00.447Z,21.33
2023-03-06T11:12:33.398Z,23.02
2023-03-06T11:15:15.092Z,26.13
2023-03-06T11:17:55.563Z,33.33
2023-03-06T11:20:51.508Z,22.88
2023-03-06T11:23:29.333Z,24.30
2023-03-06T11:26:15.214Z,20.88
2023-03-06T11:28:48.549Z,29.67
2023-03-06T11:31:20.878Z,21.67
2023-03-06T11:34:06.410Z,22.55
2023-03-06T11:36:36.333Z,21.35
2023-03-06T11:39:26.464Z,24.02
2023-03-06T11:42:20.513Z,22.75
2023-03-06T11:45:07.225Z,22.45
2023-03-06T11:47:39.248Z,24.50
2023-03-06T11:50:18.888Z,20.20
2023-03-06T11:52:54.300Z,22.50
2023-03-06T11:55:50.381Z,20.98
2023-03-06T11:58:36.058Z,22.02
2023-03-06T12:01:32.393Z,21.85
2023-03-06T12:04:11.635Z,21.17
2023-03-06T12:07:12.459Z,19.98
2023-03-06T12:09:49.676Z,18.52
2023-03-06T12:12:54.247Z,20.98
2023-03-06T12:15:58.581Z,20.15
2023-03-06T12:19:04.188Z,20.08
2023-03-06T12:21:45.728Z,18.58
2023-03-06T12:24:27.672Z,18.88
2023-03-06T12:27:12.978Z,18.50
2023-03-06T12:29:46.354Z,20.45
2023-03-06T12:32:27.787Z,17.17
2023-03-06T12:35:05.958Z,15.98
2023-03-06T12:37:54.965Z,15.67
2023-03-06T12:40:39.616Z,10.93
2023-03-06T12:43:25.169Z,11.80
2023-03-06T12:46:01.320Z,10.43
2023-03-06T12:48:34.959Z,11.45
2023-03-06T12:51:03.981Z,11.30
2023-03-06T12:53:33.044Z,11.70
2023-03-06T12:58:28.701Z,10.23
2023-03-06T13:01:06.149Z,10.02
2023-03-06T13:03:52.174Z,12.57
2023-03-06T13:06:51.209Z,16.05
2023-03-06T13:12:16.335Z,11.57
2023-03-06T13:14:53.840Z,10.93
2023-03-06T13:17:21.424Z,13.07
2023-03-06T13:19:49.218Z,11.82
2023-03-06T13:22:30.001Z,10.27
2023-03-06T13:25:18.953Z,13.25
2023-03-06T13:28:00.326Z,15.00
2023-03-06T13:30:39.483Z,8.48
2023-03-06T13:33:27.521Z,10.43
2023-03-06T13:36:14.134Z,9.85
2023-03-06T13:38:40.873Z,10.50
2023-03-06T13:41:23.084Z,14.18
2023-03-06T13:43:52.692Z,12.90
2023-03-06T13:46:37.811Z,10.35
2023-03-06T13:49:07.793Z,8.55
2023-03-06T13:51:52.079Z,8.73
2023-03-06T13:54:41.029Z,10.52
2023-03-06T13:57:39.889Z,9.05
2023-03-06T14:00:34.267Z,10.57
2023-03-06T14:03:01.147Z,6.32
2023-03-06T14:05:46.059Z,18.77
2023-03-06T14:08:13.169Z,9.48
2023-03-06T14:10:40.711Z,8.38
2023-03-06T14:13:20.109Z,7.20
2023-03-06T14:15:52.826Z,7.68
2023-03-06T14:18:28.001Z,7.50
2023-03-06T14:21:01.073Z,7.15
2023-03-06T14:23:35.337Z,7.28
2023-03-06T14:26:08.952Z,7.70
2023-03-06T14:28:37.449Z,5.95
2023-03-06T14:31:06.241Z,7.80
2023-03-06T14:33:39.111Z,7.53
2023-03-06T14:36:10.386Z,9.13
2023-03-06T14:38:44.198Z,7.97
2023-03-06T14:41:13.048Z,8.50
2023-03-06T14:43:41.072Z,10.52
2023-03-06T14:46:20.086Z,7.57
2023-03-06T14:48:47.960Z,8.20
2023-03-06T14:51:21.182Z,10.88
2023-03-06T14:53:50.344Z,8.35
2023-03-06T14:56:23.437Z,10.27
2023-03-06T14:58:50.629Z,11.70
2023-03-06T15:01:26.084Z,10.73
2023-03-06T15:03:57.506Z,12.82
2023-03-06T15:06:29.805Z,8.10
2023-03-06T15:09:16.645Z,11.73
2023-03-06T15:12:03.990Z,9.40
2023-03-06T15:14:42.425Z,6.85
2023-03-06T15:17:18.469Z,7.38
2023-03-06T15:19:48.585Z,8.88
2023-03-06T15:22:27.753Z,7.82
2023-03-06T15:25:14.347Z,9.20
2023-03-06T15:27:47.213Z,7.78
2023-03-06T15:30:26.471Z,10.20
2023-03-06T15:33:22.242Z,8.90
2023-03-06T15:36:01.902Z,10.93
2023-03-06T15:38:32.406Z,12.40
2023-03-06T15:41:01.824Z,9.63
2023-03-06T15:43:34.745Z,10.95
2023-03-06T15:46:02.155Z,11.40
2023-03-06T15:48:29.170Z,10.82
2023-03-06T15:50:56.436Z,12.05
2023-03-06T15:53:23.757Z,13.70
2023-03-06T15:55:52.220Z,10.88
2023-03-06T15:58:23.507Z,9.98
2023-03-06T16:00:51.261Z,10.05
2023-03-06T16:03:18.837Z,10.32
2023-03-06T16:05:45.843Z,9.27
2023-03-06T16:08:14.931Z,9.95
2023-03-06T16:10:44.704Z,9.50
2023-03-06T16:13:16.430Z,12.30
2023-03-06T16:15:49.384Z,11.68
2023-03-06T16:18:16.831Z,13.15
2023-03-06T16:20:43.987Z,11.13
2023-03-06T16:23:11.052Z,11.25
2023-03-06T16:25:45.860Z,15.05
2023-03-06T16:28:16.463Z,10.32
2023-03-06T16:30:44.675Z,11.00
2023-03-06T16:33:12.964Z,11.70
2023-03-06T16:35:41.275Z,14.80
2023-03-06T16:38:10.567Z,14.13
2023-03-06T16:40:41.191Z,18.65
2023-03-06T16:43:09.706Z,19.20
2023-03-06T16:45:39.293Z,16.88
2023-03-06T16:48:07.461Z,14.35
2023-03-06T16:50:38.902Z,13.93
2023-03-06T16:53:06.442Z,14.85
2023-03-06T16:55:34.908Z,10.90
2023-03-06T16:58:03.223Z,13.77
2023-03-06T17:00:32.110Z,10.98
2023-03-06T17:03:00.800Z,13.25
2023-03-06T17:05:28.924Z,15.98
2023-03-06T17:07:56.571Z,13.32
2023-03-06T17:10:26.324Z,10.52
2023-03-06T17:12:55.225Z,12.73
2023-03-06T17:15:22.341Z,15.23
2023-03-06T17:17:51.646Z,14.70
2023-03-06T17:20:19.672Z,12.55
2023-03-06T17:22:46.693Z,12.88
2023-03-06T17:25:13.689Z,13.50
2023-03-06T17:27:41.041Z,14.18
2023-03-06T17:30:08.585Z,13.95
2023-03-06T17:32:37.586Z,14.13
2023-03-06T17:35:05.227Z,13.07
2023-03-06T17:37:32.419Z,13.02
2023-03-06T17:39:59.407Z,12.10
2023-03-06T17:42:26.406Z,12.70
2023-03-06T17:44:53.365Z,17.17
2023-03-06T17:47:20.410Z,16.20
2023-03-06T17:49:47.425Z,16.40
2023-03-06T17:52:14.409Z,14.02
2023-03-06T17:54:41.459Z,13.13
2023-03-06T17:57:08.532Z,15.38
2023-03-06T17:59:35.501Z,12.88
2023-03-06T18:02:02.760Z,12.00
2023-03-06T18:04:29.944Z,15.38
2023-03-06T18:06:58.301Z,19.38
2023-03-06T18:09:25.494Z,15.45
2023-03-06T18:11:52.438Z,14.60
2023-03-06T18:14:19.445Z,15.38
2023-03-06T18:16:46.765Z,13.38
2023-03-06T18:19:14.357Z,14.38
2023-03-06T18:21:41.468Z,39.72
2023-03-06T18:24:09.405Z,21.77
2023-03-06T18:26:36.512Z,17.23
2023-03-06T18:29:04.754Z,52.90
2023-03-06T18:31:37.295Z,44.17
2023-03-06T18:34:07.409Z,19.55
2023-03-06T18:36:35.737Z,20.50
2023-03-06T18:39:05.310Z,21.05
2023-03-06T18:41:32.926Z,17.38
2023-03-06T18:44:01.489Z,21.92
2023-03-06T18:46:34.756Z,20.92
2023-03-06T18:49:02.256Z,18.10
2023-03-06T18:51:29.318Z,20.20
2023-03-06T18:53:58.196Z,22.23
2023-03-06T18:56:25.398Z,60.95
2023-03-06T18:58:53.548Z,21.88
2023-03-06T19:01:22.553Z,24.13
2023-03-06T19:03:49.885Z,21.20
2023-03-06T19:06:17.646Z,19.17
2023-03-06T19:08:45.244Z,20.38
2023-03-06T19:11:14.726Z,14.10
2023-03-06T19:13:41.943Z,15.95
2023-03-06T19:16:16.026Z,15.93
2023-03-06T19:18:43.117Z,17.10
2023-03-06T19:21:15.038Z,14.18
2023-03-06T19:23:42.706Z,12.93
2023-03-06T19:26:11.521Z,12.43
2023-03-06T19:28:40.824Z,12.10
2023-03-06T19:31:14.401Z,12.95
2023-03-06T19:33:42.704Z,10.80
2023-03-06T19:36:12.010Z,12.85
2023-03-06T19:41:06.322Z,15.45
2023-03-06T19:43:33.225Z,12.02
2023-03-06T19:46:00.895Z,14.85
2023-03-06T19:48:27.844Z,10.20
2023-03-06T19:50:54.987Z,11.93
2023-03-06T19:53:23.064Z,14.55
2023-03-06T19:55:50.142Z,14.27
2023-03-06T19:58:17.436Z,12.88
2023-03-06T20:00:44.377Z,21.60
2023-03-06T20:03:11.480Z,23.00
2023-03-06T20:05:46.080Z,19.35
2023-03-06T20:08:13.469Z,25.52
2023-03-06T20:10:40.306Z,23.08
2023-03-06T20:13:07.467Z,22.92
2023-03-06T20:15:35.170Z,22.23
2023-03-06T20:18:02.287Z,23.13
2023-03-06T20:20:29.128Z,21.20
2023-03-06T20:22:56.231Z,23.98
2023-03-06T20:25:23.132Z,23.23
2023-03-06T20:27:50.497Z,23.55
2023-03-06T20:30:17.813Z,25.50
2023-03-06T20:32:44.747Z,21.35
2023-03-06T20:35:11.877Z,27.33
2023-03-06T20:37:40.773Z,24.63
2023-03-06T20:40:08.619Z,23.25
2023-03-06T20:42:35.874Z,32.95
2023-03-06T20:45:02.957Z,91.47
2023-03-06T20:47:31.092Z,54.53
2023-03-06T20:49:57.923Z,32.03
2023-03-06T20:52:24.978Z,28.50
2023-03-06T20:54:51.811Z,27.98
2023-03-06T20:57:18.692Z,29.45
2023-03-06T20:59:45.650Z,30.42
2023-03-06T21:02:15.137Z,28.30
2023-03-06T21:04:42.366Z,28.48
2023-03-06T21:07:09.333Z,27.90
2023-03-06T21:09:37.914Z,43.67
2023-03-06T21:12:05.401Z,42.93
2023-03-06T21:14:32.401Z,45.78
2023-03-06T21:17:01.271Z,32.88
2023-03-06T21:19:28.157Z,85.93
2023-03-06T21:21:55.125Z,40.88
2023-03-06T21:24:22.498Z,40.33
2023-03-06T21:26:51.188Z,41.05
2023-03-06T21:29:18.399Z,50.47
2023-03-06T21:31:45.469Z,45.92
2023-03-06T21:34:12.608Z,34.38
2023-03-06T21:36:39.635Z,41.53
2023-03-06T21:39:06.791Z,41.15
2023-03-06T21:41:34.057Z,42.03
2023-03-06T21:44:03.455Z,42.50
2023-03-06T21:46:31.208Z,37.28
2023-03-06T21:48:58.840Z,37.38
2023-03-06T21:51:26.439Z,33.15
2023-03-06T21:53:54.330Z,29.42
2023-03-06T21:56:25.000Z,33.25
2023-03-06T21:58:52.299Z,34.20
2023-03-06T22:01:25.952Z,28.73
2023-03-06T22:03:53.521Z,31.08
2023-03-06T22:06:25.507Z,28.70
2023-03-06T22:08:58.580Z,28.30
2023-03-06T22:11:27.509Z,31.48
2023-03-06T22:13:54.546Z,31.27
2023-03-06T22:16:21.811Z,27.35
2023-03-06T22:18:52.155Z,29.40
2023-03-06T22:21:22.300Z,29.13
2023-03-06T22:23:51.586Z,30.92
2023-03-06T22:26:19.063Z,33.03
2023-03-06T22:28:46.280Z,40.20
2023-03-06T22:31:15.026Z,48.40
2023-03-06T22:33:42.103Z,43.40
2023-03-06T22:36:12.456Z,33.28
2023-03-06T22:38:41.543Z,36.53
2023-03-06T22:41:09.896Z,33.90
2023-03-06T22:43:37.386Z,30.05
2023-03-06T22:46:16.136Z,29.88
2023-03-06T22:48:43.995Z,30.73
2023-03-06T22:51:13.839Z,33.22
2023-03-06T22:53:41.295Z,27.00
2023-03-06T22:56:11.213Z,28.98
2023-03-06T22:58:38.602Z,26.73
2023-03-06T23:01:06.357Z,30.15
2023-03-06T23:03:33.322Z,24.40
2023-03-06T23:06:00.170Z,25.38
2023-03-06T23:08:27.023Z,32.53
2023-03-06T23:10:53.918Z,23.30
2023-03-06T23:13:39.162Z,23.80
2023-03-06T23:16:25.577Z,21.48
2023-03-06T23:19:11.673Z,21.58
2023-03-06T23:21:57.126Z,23.13
2023-03-06T23:24:42.871Z,23.10
2023-03-06T23:27:09.916Z,24.05
2023-03-06T23:29:36.964Z,21.63
2023-03-06T23:32:05.460Z,21.10
2023-03-06T23:34:32.510Z,28.45
2023-03-06T23:36:59.390Z,21.25
2023-03-06T23:39:26.685Z,23.52
2023-03-06T23:41:53.499Z,22.00
2023-03-06T23:44:20.728Z,20.00
2023-03-06T23:46:47.614Z,19.15
2023-03-06T23:49:14.627Z,21.15
2023-03-06T23:51:41.442Z,21.52
2023-03-06T23:54:09.970Z,25.45
2023-03-06T23:56:36.942Z,20.33
2023-03-06T23:59:04.201Z,23.17
